createdAt,value
2018-04-07T00:01:17.060Z,7.30
2018-04-07T00:06:27.303Z,7.10
2018-04-07T00:08:54.811Z,7.20
2018-04-07T00:11:22.470Z,7.20
2018-04-07T00:13:50.211Z,7.10
2018-04-07T00:16:17.837Z,7.20
2018-04-07T00:18:51.332Z,7.10
2018-04-07T00:21:19.630Z,7.00
2018-04-07T00:23:48.550Z,7.00
2018-04-07T00:26:16.111Z,7.00
2018-04-07T00:28:43.620Z,6.80
2018-04-07T00:31:11.145Z,6.80
2018-04-07T00:33:38.696Z,6.80
2018-04-07T00:36:06.199Z,6.80
2018-04-07T00:38:33.724Z,6.80
2018-04-07T00:41:01.221Z,6.80
2018-04-07T00:43:28.938Z,6.70
2018-04-07T00:45:56.804Z,6.80
2018-04-07T00:48:24.582Z,6.70
2018-04-07T00:50:58.181Z,6.30
2018-04-07T00:53:25.814Z,6.40
2018-04-07T00:55:53.493Z,6.50
2018-04-07T00:59:11.995Z,6.50
2018-04-07T01:01:39.745Z,6.40
2018-04-07T01:04:08.636Z,6.40
2018-04-07T01:06:36.952Z,6.50
2018-04-07T01:09:20.439Z,6.40
2018-04-07T01:11:48.813Z,6.40
2018-04-07T01:14:23.265Z,6.50
2018-04-07T01:16:57.072Z,6.50
2018-04-07T01:19:24.869Z,6.50
2018-04-07T01:21:58.885Z,6.40
2018-04-07T01:24:26.406Z,6.30
2018-04-07T01:26:54.001Z,6.40
2018-04-07T01:29:21.591Z,6.40
2018-04-07T01:31:49.927Z,6.40
2018-04-07T01:34:19.198Z,6.30
2018-04-07T01:36:46.802Z,6.30
2018-04-07T01:39:14.306Z,6.20
2018-04-07T01:41:41.808Z,6.20
2018-04-07T01:44:09.480Z,6.10
2018-04-07T01:46:37.096Z,6.10
2018-04-07T01:49:04.868Z,6.10
2018-04-07T01:51:32.506Z,6.10
2018-04-07T01:54:00.993Z,5.70
2018-04-07T01:56:38.390Z,5.90
2018-04-07T01:59:06.048Z,5.90
2018-04-07T02:01:45.502Z,6.00
2018-04-07T02:04:16.309Z,5.90
2018-04-07T02:06:44.715Z,5.80
2018-04-07T02:09:22.744Z,5.80
2018-04-07T02:11:50.349Z,5.90
2018-04-07T02:14:22.924Z,6.00
2018-04-07T02:16:51.295Z,5.90
2018-04-07T02:19:18.932Z,5.90
2018-04-07T02:21:47.308Z,5.80
2018-04-07T02:24:23.302Z,5.70
2018-04-07T02:26:51.584Z,5.70
2018-04-07T02:29:21.250Z,5.80
2018-04-07T02:31:48.843Z,5.80
2018-04-07T02:34:17.566Z,5.70
2018-04-07T02:36:45.294Z,5.70
2018-04-07T02:39:15.397Z,5.70
2018-04-07T02:41:43.072Z,5.70
2018-04-07T02:44:11.485Z,5.70
2018-04-07T02:46:39.017Z,5.60
2018-04-07T02:49:07.525Z,5.60
2018-04-07T02:51:44.168Z,5.60
2018-04-07T02:54:13.880Z,5.60
2018-04-07T02:56:45.446Z,5.50
2018-04-07T02:59:13.830Z,5.50
2018-04-07T03:01:41.540Z,5.40
2018-04-07T03:04:09.375Z,5.40
2018-04-07T03:06:37.113Z,5.40
2018-04-07T03:09:06.587Z,5.60
2018-04-07T03:11:35.750Z,5.50
2018-04-07T03:14:03.440Z,5.80
2018-04-07T03:16:31.026Z,5.80
2018-04-07T03:18:59.439Z,5.50
2018-04-07T03:21:27.139Z,5.40
2018-04-07T03:23:54.830Z,5.40
2018-04-07T03:26:23.301Z,5.30
2018-04-07T03:28:50.961Z,5.30
2018-04-07T03:31:18.625Z,5.20
2018-04-07T03:33:46.200Z,5.20
2018-04-07T03:36:14.755Z,5.10
2018-04-07T03:38:42.783Z,5.10
2018-04-07T03:41:10.596Z,5.00
2018-04-07T03:43:38.350Z,5.50
2018-04-07T03:46:06.074Z,5.70
2018-04-07T03:48:33.615Z,5.40
2018-04-07T03:51:01.942Z,5.10
2018-04-07T03:53:29.556Z,5.10
2018-04-07T03:55:57.213Z,5.10
2018-04-07T03:58:26.592Z,5.10
2018-04-07T04:00:57.416Z,5.00
2018-04-07T04:03:24.940Z,5.00
2018-04-07T04:05:53.002Z,5.00
2018-04-07T04:08:20.664Z,4.90
2018-04-07T04:10:48.210Z,4.90
2018-04-07T04:13:15.884Z,4.80
2018-04-07T04:15:43.485Z,4.90
2018-04-07T04:18:12.831Z,4.80
2018-04-07T04:20:42.498Z,4.80
2018-04-07T04:23:10.629Z,4.80
2018-04-07T04:25:39.928Z,4.80
2018-04-07T04:28:11.585Z,4.70
2018-04-07T04:30:40.546Z,4.70
2018-04-07T04:33:12.986Z,4.70
2018-04-07T04:35:42.148Z,4.70
2018-04-07T04:38:11.346Z,4.70
2018-04-07T04:40:39.314Z,4.70
2018-04-07T04:43:07.364Z,4.70
2018-04-07T04:45:36.890Z,4.60
2018-04-07T04:48:04.860Z,4.60
2018-04-07T04:50:32.981Z,4.60
2018-04-07T04:53:01.091Z,4.60
2018-04-07T04:55:29.074Z,4.50
2018-04-07T05:03:34.693Z,4.60
2018-04-07T05:06:02.728Z,4.60
2018-04-07T05:08:31.106Z,4.50
2018-04-07T05:10:59.383Z,4.50
2018-04-07T05:13:34.830Z,4.50
2018-04-07T05:16:02.796Z,4.50
2018-04-07T05:18:31.176Z,4.60
2018-04-07T05:21:01.296Z,4.60
2018-04-07T05:23:29.367Z,4.60
2018-04-07T05:25:57.336Z,4.70
2018-04-07T05:28:25.303Z,4.60
2018-04-07T05:30:53.580Z,4.70
2018-04-07T05:33:21.652Z,4.70
2018-04-07T05:35:49.417Z,4.70
2018-04-07T05:38:17.527Z,4.80
2018-04-07T05:40:45.524Z,4.80
2018-04-07T05:43:14.348Z,4.90
2018-04-07T05:45:57.231Z,4.90
2018-04-07T05:48:28.916Z,5.00
2018-04-07T05:50:56.995Z,5.10
2018-04-07T06:00:45.490Z,5.30
2018-04-07T06:03:13.356Z,5.10
2018-04-07T06:05:41.774Z,5.20
2018-04-07T06:08:09.709Z,5.40
2018-04-07T06:10:37.673Z,5.70
2018-04-07T06:13:06.160Z,5.90
2018-04-07T06:15:34.300Z,6.00
2018-04-07T06:18:03.116Z,6.20
2018-04-07T06:20:31.056Z,6.20
2018-04-07T06:22:59.053Z,6.30
2018-04-07T06:25:26.819Z,6.40
2018-04-07T06:27:55.403Z,6.40
2018-04-07T06:30:23.372Z,6.50
2018-04-07T06:32:52.364Z,6.60
2018-04-07T06:35:20.498Z,6.70
2018-04-07T06:37:48.405Z,6.80
2018-04-07T06:40:16.371Z,7.00
2018-04-07T06:42:44.270Z,7.20
2018-04-07T06:45:12.464Z,7.30
2018-04-07T06:47:42.939Z,7.50
2018-04-07T06:50:13.997Z,7.60
2018-04-07T06:52:48.278Z,7.70
2018-04-07T06:55:23.370Z,7.90
2018-04-07T06:57:57.589Z,7.80
2018-04-07T07:03:06.924Z,8.40
2018-04-07T07:05:34.701Z,8.40
2018-04-07T07:08:02.934Z,8.60
2018-04-07T07:10:32.430Z,8.80
2018-04-07T07:13:02.473Z,9.10
2018-04-07T07:15:30.069Z,9.40
2018-04-07T07:17:57.690Z,9.70
2018-04-07T07:20:25.400Z,10.00
2018-04-07T07:22:52.921Z,10.40
2018-04-07T07:25:21.841Z,11.00
2018-04-07T07:27:49.468Z,11.40
2018-04-07T07:30:17.091Z,11.70
2018-04-07T07:32:45.547Z,13.20
2018-04-07T07:35:16.082Z,13.10
2018-04-07T07:37:44.476Z,14.60
2018-04-07T07:40:12.787Z,15.10
2018-04-07T07:42:41.520Z,15.00
2018-04-07T07:45:09.150Z,15.90
2018-04-07T07:47:36.760Z,16.60
2018-04-07T07:50:04.370Z,16.90
2018-04-07T07:52:31.940Z,17.30
2018-04-07T07:54:59.526Z,18.00
2018-04-07T07:57:27.083Z,17.80
2018-04-07T07:59:54.648Z,18.10
2018-04-07T08:02:23.678Z,19.30
2018-04-07T08:04:51.304Z,19.30
2018-04-07T08:07:18.875Z,19.50
2018-04-07T08:09:47.199Z,19.60
2018-04-07T08:12:14.714Z,19.60
2018-04-07T08:14:43.093Z,18.70
2018-04-07T08:17:10.593Z,18.60
2018-04-07T08:19:38.144Z,19.80
2018-04-07T08:22:05.673Z,19.90
2018-04-07T08:24:33.944Z,20.60
2018-04-07T08:27:02.227Z,21.40
2018-04-07T08:29:30.497Z,22.30
2018-04-07T08:31:58.772Z,22.90
2018-04-07T08:34:27.056Z,23.20
2018-04-07T08:36:55.319Z,23.40
2018-04-07T08:39:22.842Z,23.40
2018-04-07T08:41:50.324Z,23.60
2018-04-07T08:44:17.866Z,23.40
2018-04-07T08:46:45.346Z,22.90
2018-04-07T08:49:12.853Z,23.00
2018-04-07T08:51:40.346Z,23.70
2018-04-07T08:54:07.932Z,23.70
2018-04-07T08:56:36.190Z,24.50
2018-04-07T08:59:03.684Z,24.50
2018-04-07T09:01:31.950Z,24.70
2018-04-07T09:04:00.216Z,24.30
2018-04-07T09:06:27.821Z,24.30
2018-04-07T09:08:55.310Z,24.70
2018-04-07T09:11:23.538Z,25.30
2018-04-07T09:13:51.370Z,25.50
2018-04-07T09:16:18.896Z,25.00
2018-04-07T09:18:46.394Z,25.00
2018-04-07T09:21:14.661Z,25.50
2018-04-07T09:23:42.168Z,25.50
2018-04-07T09:26:09.677Z,25.00
2018-04-07T09:28:37.376Z,25.60
2018-04-07T09:31:10.441Z,26.00
2018-04-07T09:33:38.139Z,26.00
2018-04-07T09:36:05.647Z,25.90
2018-04-07T09:38:33.157Z,26.00
2018-04-07T09:41:00.654Z,25.40
2018-04-07T09:43:28.200Z,25.70
2018-04-07T09:45:55.703Z,24.80
2018-04-07T09:48:23.989Z,25.80
2018-04-07T09:50:53.330Z,26.00
2018-04-07T09:53:20.823Z,26.00
2018-04-07T09:55:48.377Z,26.50
2018-04-07T09:58:16.748Z,27.10
2018-04-07T10:00:47.112Z,27.30
2018-04-07T10:03:21.872Z,27.50
2018-04-07T10:05:50.302Z,27.70
2018-04-07T10:08:19.664Z,27.90
2018-04-07T10:10:47.180Z,27.50
2018-04-07T10:13:14.684Z,27.20
2018-04-07T10:15:42.184Z,27.30
2018-04-07T10:18:10.489Z,28.20
2018-04-07T10:20:37.984Z,28.20
2018-04-07T10:23:05.501Z,28.20
2018-04-07T10:25:32.997Z,28.30
2018-04-07T10:28:00.515Z,27.80
2018-04-07T10:30:28.022Z,27.30
2018-04-07T10:32:55.548Z,27.90
2018-04-07T10:35:23.071Z,27.20
2018-04-07T10:37:51.420Z,28.10
2018-04-07T10:40:18.960Z,28.00
2018-04-07T10:42:46.469Z,27.80
2018-04-07T10:45:14.763Z,27.70
2018-04-07T10:47:42.394Z,27.70
2018-04-07T10:50:11.804Z,28.80
2018-04-07T10:52:40.163Z,29.10
2018-04-07T10:55:07.613Z,29.00
2018-04-07T10:57:35.902Z,29.70
2018-04-07T11:00:03.397Z,29.60
2018-04-07T11:02:31.097Z,29.70
2018-04-07T11:04:58.718Z,29.60
2018-04-07T11:07:26.244Z,29.80
2018-04-07T11:09:53.727Z,29.60
2018-04-07T11:12:21.227Z,29.60
2018-04-07T11:14:48.802Z,29.30
2018-04-07T11:17:16.328Z,29.10
2018-04-07T11:19:43.863Z,29.20
2018-04-07T11:22:11.440Z,29.50
2018-04-07T11:24:38.949Z,29.40
2018-04-07T11:27:06.451Z,29.80
2018-04-07T11:29:33.972Z,30.00
2018-04-07T11:32:02.270Z,30.10
2018-04-07T11:34:30.513Z,30.30
2018-04-07T11:36:58.039Z,30.20
2018-04-07T11:39:25.523Z,30.30
2018-04-07T11:41:53.038Z,30.30
2018-04-07T11:44:20.536Z,30.40
2018-04-07T11:46:48.106Z,30.50
2018-04-07T11:49:15.602Z,30.70
2018-04-07T11:51:43.090Z,30.70
2018-04-07T11:54:10.591Z,30.50
2018-04-07T11:56:38.846Z,30.90
2018-04-07T11:59:06.351Z,30.90
2018-04-07T12:01:33.958Z,30.90
2018-04-07T12:04:01.480Z,30.90
2018-04-07T12:06:28.995Z,31.00
2018-04-07T12:08:56.518Z,31.10
2018-04-07T12:11:24.086Z,30.90
2018-04-07T12:13:51.551Z,31.30
2018-04-07T12:16:19.075Z,30.70
2018-04-07T12:18:46.599Z,30.90
2018-04-07T12:21:14.897Z,31.40
2018-04-07T12:23:42.428Z,31.30
2018-04-07T12:26:09.966Z,31.50
2018-04-07T12:28:37.459Z,30.70
2018-04-07T12:31:05.734Z,30.90
2018-04-07T12:33:34.008Z,31.60
2018-04-07T12:36:02.424Z,31.60
2018-04-07T12:38:29.929Z,31.60
2018-04-07T12:40:58.188Z,31.80
2018-04-07T12:43:25.683Z,31.80
2018-04-07T12:45:53.942Z,32.40
2018-04-07T12:48:21.455Z,32.30
2018-04-07T12:50:48.958Z,32.20
2018-04-07T12:53:16.490Z,31.90
2018-04-07T12:55:43.994Z,32.20
2018-04-07T12:58:12.288Z,32.40
2018-04-07T13:00:39.767Z,32.30
2018-04-07T13:03:07.426Z,32.30
2018-04-07T13:05:35.692Z,31.90
2018-04-07T13:08:04.791Z,31.80
2018-04-07T13:10:32.303Z,32.20
2018-04-07T13:12:59.799Z,32.50
2018-04-07T13:15:27.303Z,32.30
2018-04-07T13:17:54.790Z,32.50
2018-04-07T13:20:23.075Z,32.80
2018-04-07T13:22:50.584Z,32.80
2018-04-07T13:25:18.078Z,33.20
2018-04-07T13:27:46.345Z,33.10
2018-04-07T13:30:13.851Z,33.00
2018-04-07T13:32:41.377Z,33.40
2018-04-07T13:35:09.644Z,33.20
2018-04-07T13:37:37.924Z,33.00
2018-04-07T13:40:06.200Z,33.00
2018-04-07T13:42:34.487Z,33.30
2018-04-07T13:45:02.757Z,33.20
2018-04-07T13:47:31.052Z,33.00
2018-04-07T13:49:58.573Z,32.90
2018-04-07T13:52:26.077Z,33.20
2018-04-07T13:54:53.669Z,33.40
2018-04-07T13:57:21.190Z,33.70
2018-04-07T13:59:48.708Z,33.40
2018-04-07T14:02:16.191Z,33.90
2018-04-07T14:04:44.459Z,33.70
2018-04-07T14:07:15.860Z,33.90
2018-04-07T14:09:43.412Z,33.90
2018-04-07T14:12:10.951Z,33.90
2018-04-07T14:14:39.019Z,33.80
2018-04-07T14:17:06.571Z,34.00
2018-04-07T14:19:34.130Z,34.00
2018-04-07T14:22:01.936Z,34.10
2018-04-07T14:24:30.290Z,34.20
2018-04-07T14:26:57.812Z,34.20
2018-04-07T14:29:26.128Z,34.50
2018-04-07T14:31:53.678Z,34.50
2018-04-07T14:34:21.194Z,34.90
2018-04-07T14:36:50.304Z,35.50
2018-04-07T14:39:18.736Z,35.50
2018-04-07T14:41:46.240Z,35.50
2018-04-07T14:44:14.526Z,35.40
2018-04-07T14:46:42.853Z,35.80
2018-04-07T14:49:11.114Z,36.00
2018-04-07T14:51:38.581Z,36.00
2018-04-07T14:54:06.077Z,36.40
2018-04-07T14:56:33.570Z,36.70
2018-04-07T14:59:01.071Z,36.80
2018-04-07T15:01:28.568Z,36.90
2018-04-07T15:03:56.852Z,36.40
2018-04-07T15:06:25.114Z,36.20
2018-04-07T15:08:52.605Z,36.20
2018-04-07T15:11:21.838Z,36.70
2018-04-07T15:13:49.472Z,37.00
2018-04-07T15:16:17.019Z,36.00
2018-04-07T15:18:44.546Z,35.50
2018-04-07T15:21:12.049Z,36.50
2018-04-07T15:23:39.566Z,36.70
2018-04-07T15:26:07.815Z,36.70
2018-04-07T15:28:35.347Z,36.70
2018-04-07T15:31:02.836Z,35.80
2018-04-07T15:33:30.384Z,35.00
2018-04-07T15:35:57.909Z,34.40
2018-04-07T15:38:25.415Z,35.00
2018-04-07T15:40:52.927Z,34.90
2018-04-07T15:43:20.438Z,35.00
2018-04-07T15:45:47.964Z,33.90
2018-04-07T15:48:15.456Z,33.40
2018-04-07T15:50:42.990Z,33.20
2018-04-07T15:53:11.249Z,34.90
2018-04-07T15:55:38.844Z,34.90
2018-04-07T15:58:06.380Z,35.10
2018-04-07T16:00:33.891Z,35.50
2018-04-07T16:03:01.562Z,35.80
2018-04-07T16:05:29.063Z,35.40
2018-04-07T16:07:56.576Z,35.80
2018-04-07T16:10:24.074Z,35.40
2018-04-07T16:12:51.596Z,35.60
2018-04-07T16:15:19.117Z,36.00
2018-04-07T16:17:46.726Z,35.90
2018-04-07T16:20:14.234Z,35.80
2018-04-07T16:22:41.737Z,35.10
2018-04-07T16:25:09.290Z,33.90
2018-04-07T16:27:37.602Z,34.00
2018-04-07T16:30:06.044Z,33.90
2018-04-07T16:32:33.530Z,32.80
2018-04-07T16:35:01.039Z,30.60
2018-04-07T16:37:29.321Z,26.90
2018-04-07T16:39:57.591Z,25.60
2018-04-07T16:42:25.868Z,24.90
2018-04-07T16:44:54.187Z,24.50
2018-04-07T16:47:21.817Z,24.40
2018-04-07T16:49:49.310Z,24.10
2018-04-07T16:52:16.921Z,23.60
2018-04-07T16:54:44.437Z,23.40
2018-04-07T16:57:11.960Z,23.40
2018-04-07T16:59:39.460Z,23.20
2018-04-07T17:02:06.995Z,23.10
2018-04-07T17:04:34.590Z,23.00
2018-04-07T17:07:02.062Z,22.60
2018-04-07T17:09:29.592Z,22.20
2018-04-07T17:11:57.090Z,22.00
2018-04-07T17:14:25.637Z,21.90
2018-04-07T17:16:53.132Z,21.70
2018-04-07T17:19:21.455Z,21.40
2018-04-07T17:21:48.971Z,21.40
2018-04-07T17:24:17.260Z,21.20
2018-04-07T17:26:44.762Z,21.20
2018-04-07T17:29:12.271Z,21.00
2018-04-07T17:31:40.533Z,20.80
2018-04-07T17:34:08.791Z,20.70
2018-04-07T17:36:36.301Z,20.70
2018-04-07T17:39:03.798Z,20.70
2018-04-07T17:41:31.311Z,20.60
2018-04-07T17:43:58.827Z,20.60
2018-04-07T17:46:26.351Z,20.40
2018-04-07T17:49:05.989Z,20.30
2018-04-07T17:51:22.160Z,20.00
2018-04-07T17:53:49.819Z,20.00
2018-04-07T17:56:18.889Z,19.90
2018-04-07T17:58:47.176Z,19.80
2018-04-07T18:01:15.444Z,19.60
2018-04-07T18:03:42.952Z,19.60
2018-04-07T18:06:10.524Z,19.60
2018-04-07T18:08:38.041Z,19.60
2018-04-07T18:11:05.570Z,19.60
2018-04-07T18:13:33.097Z,19.50
2018-04-07T18:16:00.577Z,19.30
2018-04-07T18:18:28.069Z,19.10
2018-04-07T18:20:56.332Z,18.90
2018-04-07T18:23:24.586Z,18.70
2018-04-07T18:25:52.115Z,18.70
2018-04-07T18:28:19.611Z,18.60
2018-04-07T18:30:47.160Z,18.50
2018-04-07T18:33:14.661Z,18.40
2018-04-07T18:35:42.977Z,17.90
2018-04-07T18:38:10.473Z,17.90
2018-04-07T18:40:38.737Z,17.90
2018-04-07T18:43:06.261Z,17.80
2018-04-07T18:45:33.752Z,17.80
2018-04-07T18:48:01.237Z,17.70
2018-04-07T18:50:29.519Z,17.60
2018-04-07T18:52:57.799Z,17.50
2018-04-07T18:55:25.296Z,17.50
2018-04-07T18:57:52.840Z,17.40
2018-04-07T19:00:20.368Z,17.40
2018-04-07T19:02:48.614Z,17.00
2018-04-07T19:05:16.232Z,16.90
2018-04-07T19:07:43.765Z,16.90
2018-04-07T19:10:11.271Z,16.90
2018-04-07T19:12:38.760Z,16.80
2018-04-07T19:15:06.262Z,16.80
2018-04-07T19:17:33.746Z,16.80
2018-04-07T19:20:01.258Z,16.80
2018-04-07T19:22:29.505Z,16.70
2018-04-07T19:24:57.005Z,16.60
2018-04-07T19:27:24.509Z,16.50
2018-04-07T19:29:52.009Z,16.60
2018-04-07T19:32:19.502Z,16.40
2018-04-07T19:34:46.988Z,16.40
2018-04-07T19:37:15.266Z,16.10
2018-04-07T19:39:42.761Z,16.10
2018-04-07T19:42:10.282Z,16.10
2018-04-07T19:44:37.778Z,16.10
2018-04-07T19:47:05.313Z,16.00
2018-04-07T19:49:32.787Z,16.10
2018-04-07T19:52:01.052Z,16.00
2018-04-07T19:54:29.364Z,16.00
2018-04-07T19:56:56.864Z,16.00
2018-04-07T19:59:24.377Z,16.00
2018-04-07T20:01:51.875Z,16.00
2018-04-07T20:04:19.387Z,16.00
2018-04-07T20:06:46.896Z,15.90
2018-04-07T20:09:14.395Z,15.80
2018-04-07T20:11:41.917Z,15.70
2018-04-07T20:14:09.412Z,15.80
2018-04-07T20:16:36.923Z,15.70
2018-04-07T20:19:04.414Z,15.60
2018-04-07T20:21:32.701Z,15.50
2018-04-07T20:24:00.976Z,15.40
2018-04-07T20:26:29.230Z,15.30
2018-04-07T20:28:56.722Z,15.30
2018-04-07T20:31:24.243Z,15.20
2018-04-07T20:33:51.807Z,15.10
2018-04-07T20:36:19.308Z,15.00
2018-04-07T20:38:46.807Z,15.00
2018-04-07T20:41:14.328Z,14.90
2018-04-07T20:43:41.860Z,15.00
2018-04-07T20:46:10.120Z,14.80
2018-04-07T20:48:37.852Z,14.80
2018-04-07T20:51:05.344Z,14.70
2018-04-07T20:53:33.665Z,14.40
2018-04-07T20:56:01.156Z,14.40
2018-04-07T20:58:28.654Z,14.30
2018-04-07T21:00:56.196Z,14.30
2018-04-07T21:03:24.452Z,14.30
2018-04-07T21:05:51.958Z,14.20
2018-04-07T21:08:19.520Z,14.20
2018-04-07T21:10:47.035Z,14.20
2018-04-07T21:13:15.287Z,14.20
2018-04-07T21:15:42.792Z,14.20
2018-04-07T21:18:11.063Z,14.10
2018-04-07T21:20:39.324Z,14.00
2018-04-07T21:23:06.834Z,14.00
2018-04-07T21:25:34.323Z,13.80
2018-04-07T21:28:01.819Z,13.70
2018-04-07T21:30:30.067Z,13.60
2018-04-07T21:32:57.576Z,13.60
2018-04-07T21:35:25.059Z,13.50
2018-04-07T21:37:52.554Z,13.50
2018-04-07T21:40:21.002Z,13.20
2018-04-07T21:42:48.526Z,13.20
2018-04-07T21:45:16.020Z,13.10
2018-04-07T21:47:43.506Z,13.10
2018-04-07T21:50:11.804Z,13.00
2018-04-07T21:52:39.291Z,13.00
2018-04-07T21:55:06.793Z,13.00
2018-04-07T21:57:34.284Z,12.90
2018-04-07T22:00:01.824Z,12.80
2018-04-07T22:02:30.088Z,12.70
2018-04-07T22:04:57.604Z,12.70
2018-04-07T22:07:25.149Z,12.70
2018-04-07T22:09:52.650Z,12.50
2018-04-07T22:12:20.160Z,12.50
2018-04-07T22:14:47.728Z,12.50
2018-04-07T22:17:15.253Z,12.50
2018-04-07T22:19:43.536Z,12.30
2018-04-07T22:22:11.819Z,12.30
2018-04-07T22:24:39.320Z,12.30
2018-04-07T22:27:06.828Z,12.20
2018-04-07T22:29:35.079Z,12.10
2018-04-07T22:32:02.578Z,12.10
2018-04-07T22:34:30.212Z,12.00
2018-04-07T22:36:58.454Z,11.90
2018-04-07T22:39:25.964Z,11.90
2018-04-07T22:41:53.456Z,11.90
2018-04-07T22:44:20.960Z,11.80
2018-04-07T22:46:49.220Z,11.60
2018-04-07T22:49:16.723Z,11.60
2018-04-07T22:51:44.199Z,11.60
2018-04-07T22:54:11.703Z,11.50
2018-04-07T22:56:39.208Z,11.50
2018-04-07T22:59:06.725Z,11.40
2018-04-07T23:01:34.994Z,11.30
2018-04-07T23:04:02.474Z,11.30
2018-04-07T23:06:29.985Z,11.30
2018-04-07T23:08:57.496Z,11.20
2018-04-07T23:11:25.004Z,11.20
2018-04-07T23:13:52.496Z,11.30
2018-04-07T23:16:20.784Z,11.20
2018-04-07T23:18:48.271Z,11.20
2018-04-07T23:21:15.789Z,11.20
2018-04-07T23:23:44.048Z,11.10
2018-04-07T23:26:11.547Z,11.10
2018-04-07T23:28:39.055Z,11.10
2018-04-07T23:31:07.442Z,11.20
2018-04-07T23:33:34.941Z,11.10
2018-04-07T23:36:02.424Z,11.10
2018-04-07T23:38:29.929Z,10.80
2018-04-07T23:40:58.192Z,10.80
2018-04-07T23:43:25.836Z,10.70
2018-04-07T23:45:53.375Z,10.70
2018-04-07T23:48:20.844Z,10.60
2018-04-07T23:50:48.348Z,10.50
2018-04-07T23:53:16.594Z,10.40
2018-04-07T23:55:44.106Z,10.30
2018-04-07T23:58:11.590Z,10.20
